createdAt,value
2022-12-02T00:02:40.679Z,98843.63
2022-12-02T00:05:18.999Z,98844.22
2022-12-02T00:07:47.358Z,98839.50
2022-12-02T00:10:25.559Z,98819.44
2022-12-02T00:12:53.875Z,98835.56
2022-12-02T00:15:38.390Z,98818.34
2022-12-02T00:18:06.766Z,98837.19
2022-12-02T00:20:34.467Z,98845.69
2022-12-02T00:23:02.249Z,98837.03
2022-12-02T00:25:29.947Z,98847.03
2022-12-02T00:27:58.046Z,98845.13
2022-12-02T00:30:25.967Z,98832.66
2022-12-02T00:32:53.963Z,98834.88
2022-12-02T00:35:25.325Z,98826.38
2022-12-02T00:37:53.372Z,98831.22
2022-12-02T00:40:21.353Z,98826.59
2022-12-02T00:42:49.087Z,98834.28
2022-12-02T00:45:34.423Z,98836.75
2022-12-02T00:48:02.259Z,98833.50
2022-12-02T00:50:30.672Z,98827.09
2022-12-02T00:52:58.547Z,98833.13
2022-12-02T00:55:26.343Z,98832.50
2022-12-02T00:57:54.029Z,98836.13
2022-12-02T01:00:21.748Z,98835.28
2022-12-02T01:02:49.807Z,98829.88
2022-12-02T01:05:17.540Z,98836.63
2022-12-02T01:07:45.256Z,98834.16
2022-12-02T01:10:13.546Z,98835.03
2022-12-02T01:12:41.601Z,98831.41
2022-12-02T01:15:10.110Z,98835.50
2022-12-02T01:17:37.842Z,98837.16
2022-12-02T01:20:06.750Z,98802.97
2022-12-02T01:22:34.523Z,98839.41
2022-12-02T01:25:02.225Z,98836.16
2022-12-02T01:27:29.975Z,98845.81
2022-12-02T01:29:57.615Z,98841.69
2022-12-02T01:32:25.559Z,98842.50
2022-12-02T01:34:53.397Z,98842.34
2022-12-02T01:37:21.299Z,98849.22
2022-12-02T01:39:49.020Z,98835.13
2022-12-02T01:42:16.814Z,98837.88
2022-12-02T01:44:44.760Z,98844.50
2022-12-02T01:47:12.713Z,98840.59
2022-12-02T01:49:40.394Z,98846.06
2022-12-02T01:52:08.274Z,98841.13
2022-12-02T01:54:36.867Z,98842.06
2022-12-02T01:57:05.841Z,98846.50
2022-12-02T01:59:33.546Z,98839.78
2022-12-02T02:02:01.311Z,98835.06
2022-12-02T02:04:29.135Z,98835.91
2022-12-02T02:06:56.991Z,98840.06
2022-12-02T02:09:24.672Z,98844.09
2022-12-02T02:11:52.430Z,98834.88
2022-12-02T02:14:20.165Z,98843.03
2022-12-02T02:16:47.977Z,98846.75
2022-12-02T02:19:17.126Z,98847.28
2022-12-02T02:21:50.312Z,98844.56
2022-12-02T02:24:19.456Z,98837.00
2022-12-02T02:26:47.583Z,98844.38
2022-12-02T02:29:15.361Z,98840.72
2022-12-02T02:31:44.356Z,98838.00
2022-12-02T02:34:13.093Z,98835.91
2022-12-02T02:36:40.972Z,98833.16
2022-12-02T02:39:08.784Z,98835.09
2022-12-02T02:41:37.087Z,98838.59
2022-12-02T02:44:05.814Z,98838.56
2022-12-02T02:46:33.701Z,98834.25
2022-12-02T02:49:01.939Z,98830.50
2022-12-02T02:51:29.838Z,98835.78
2022-12-02T02:53:57.795Z,98823.19
2022-12-02T02:56:25.637Z,98842.19
2022-12-02T02:58:54.789Z,98834.59
2022-12-02T03:01:28.121Z,98810.81
2022-12-02T03:04:00.919Z,98830.75
2022-12-02T03:06:31.142Z,98833.34
2022-12-02T03:09:01.154Z,98827.81
2022-12-02T03:11:30.190Z,98823.50
2022-12-02T03:13:58.953Z,98827.31
2022-12-02T03:16:28.019Z,98823.13
2022-12-02T03:18:57.583Z,98816.50
2022-12-02T03:21:27.073Z,98830.78
2022-12-02T03:23:58.096Z,98820.78
2022-12-02T03:26:26.280Z,98826.00
2022-12-02T03:28:55.519Z,98818.53
2022-12-02T03:31:23.883Z,98822.19
2022-12-02T03:33:52.149Z,98813.94
2022-12-02T03:36:20.123Z,98828.56
2022-12-02T03:38:48.193Z,98826.00
2022-12-02T03:41:16.386Z,98822.28
2022-12-02T03:43:44.330Z,98818.13
2022-12-02T03:46:12.545Z,98818.56
2022-12-02T03:48:41.336Z,98819.53
2022-12-02T03:51:10.855Z,98804.47
2022-12-02T03:53:38.823Z,98812.41
2022-12-02T03:56:08.382Z,98821.38
2022-12-02T03:58:38.546Z,98808.16
2022-12-02T04:01:06.850Z,98808.41
2022-12-02T04:03:34.636Z,98815.53
2022-12-02T04:06:02.298Z,98806.31
2022-12-02T04:08:30.076Z,98809.56
2022-12-02T04:10:57.791Z,98817.56
2022-12-02T04:13:25.574Z,98814.56
2022-12-02T04:15:53.839Z,98802.63
2022-12-02T04:18:21.643Z,98815.25
2022-12-02T04:20:49.428Z,98814.91
2022-12-02T04:23:17.161Z,98812.03
2022-12-02T04:25:44.843Z,98807.91
2022-12-02T04:28:12.690Z,98790.75
2022-12-02T04:30:40.336Z,98814.75
2022-12-02T04:33:08.082Z,98808.72
2022-12-02T04:35:35.767Z,98816.41
2022-12-02T04:38:08.674Z,98812.44
2022-12-02T04:40:39.305Z,98810.78
2022-12-02T04:43:07.031Z,98812.53
2022-12-02T04:45:34.769Z,98810.38
2022-12-02T04:48:02.427Z,98812.44
2022-12-02T04:50:30.172Z,98810.13
2022-12-02T04:52:57.885Z,98804.47
2022-12-02T04:55:25.590Z,98819.66
2022-12-02T04:57:53.273Z,98808.97
2022-12-02T05:00:21.381Z,98800.78
2022-12-02T05:02:49.138Z,98811.13
2022-12-02T05:05:16.959Z,98805.91
2022-12-02T05:07:44.703Z,98806.31
2022-12-02T05:10:12.484Z,98808.97
2022-12-02T05:12:40.199Z,98811.19
2022-12-02T05:15:08.500Z,98807.88
2022-12-02T05:17:41.702Z,98809.38
2022-12-02T05:20:11.430Z,98801.41
2022-12-02T05:22:39.194Z,98811.38
2022-12-02T05:25:07.277Z,98812.69
2022-12-02T05:27:35.805Z,98814.22
2022-12-02T05:30:05.963Z,98799.44
2022-12-02T05:32:33.677Z,98813.56
2022-12-02T05:35:01.350Z,98816.38
2022-12-02T05:37:29.014Z,98820.31
2022-12-02T05:39:56.731Z,98826.81
2022-12-02T05:42:24.445Z,98827.97
2022-12-02T05:44:52.317Z,98831.09
2022-12-02T05:47:20.215Z,98832.00
2022-12-02T05:49:47.972Z,98833.94
2022-12-02T05:52:24.550Z,98842.22
2022-12-02T05:54:58.104Z,98809.75
2022-12-02T05:57:32.080Z,98834.28
2022-12-02T06:00:22.964Z,98826.34
2022-12-02T06:02:54.744Z,98830.59
2022-12-02T06:05:32.620Z,98820.69
2022-12-02T06:08:09.891Z,98834.91
2022-12-02T06:10:39.422Z,98829.72
2022-12-02T06:13:19.415Z,98761.66
2022-12-02T06:15:48.012Z,98828.38
2022-12-02T06:18:21.552Z,98831.25
2022-12-02T06:20:54.543Z,98827.22
2022-12-02T06:23:22.698Z,98830.44
2022-12-02T06:25:53.075Z,98834.75
2022-12-02T06:28:31.338Z,98838.13
2022-12-02T06:31:11.653Z,98828.75
2022-12-02T06:33:40.687Z,98838.25
2022-12-02T06:36:15.267Z,98845.78
2022-12-02T06:38:51.001Z,98841.81
2022-12-02T06:41:28.527Z,98853.03
2022-12-02T06:44:17.054Z,98847.34
2022-12-02T06:46:45.778Z,98850.53
2022-12-02T06:49:25.215Z,98846.53
2022-12-02T06:52:02.151Z,98848.75
2022-12-02T06:54:32.129Z,98862.56
2022-12-02T06:57:03.158Z,98864.41
2022-12-02T06:59:31.992Z,98852.44
2022-12-02T07:02:08.191Z,98855.25
2022-12-02T07:04:36.359Z,98854.69
2022-12-02T07:07:21.942Z,98853.38
2022-12-02T07:10:01.863Z,98854.66
2022-12-02T07:12:38.750Z,98844.19
2022-12-02T07:15:29.384Z,98863.81
2022-12-02T07:18:05.551Z,98871.72
2022-12-02T07:20:35.840Z,98864.00
2022-12-02T07:23:15.582Z,98871.72
2022-12-02T07:25:49.889Z,98874.38
2022-12-02T07:28:33.453Z,98877.75
2022-12-02T07:31:03.972Z,98876.19
2022-12-02T07:33:31.783Z,98862.97
2022-12-02T07:35:59.457Z,98874.97
2022-12-02T07:38:57.477Z,98879.09
2022-12-02T07:41:14.895Z,98885.06
2022-12-02T07:43:42.721Z,98865.59
2022-12-02T07:46:10.475Z,98883.66
2022-12-02T07:48:38.208Z,98878.66
2022-12-02T07:51:06.146Z,98880.97
2022-12-02T07:53:33.841Z,98880.97
2022-12-02T07:56:01.504Z,98878.91
2022-12-02T07:59:02.915Z,98887.94
2022-12-02T08:01:19.612Z,98888.22
2022-12-02T08:03:47.984Z,98886.91
2022-12-02T08:06:16.381Z,98865.50
2022-12-02T08:08:44.092Z,98889.16
2022-12-02T08:11:11.799Z,98891.53
2022-12-02T08:13:39.524Z,98883.78
2022-12-02T08:16:08.636Z,98898.59
2022-12-02T08:18:36.318Z,98901.81
2022-12-02T08:21:08.446Z,98898.25
2022-12-02T08:23:37.280Z,98899.50
2022-12-02T08:26:05.602Z,98897.28
2022-12-02T08:28:33.343Z,98892.41
2022-12-02T08:31:01.085Z,98898.78
2022-12-02T08:33:28.844Z,98892.72
2022-12-02T08:35:56.556Z,98895.34
2022-12-02T08:38:24.291Z,98884.34
2022-12-02T08:40:51.950Z,98896.78
2022-12-02T08:43:19.748Z,98900.28
2022-12-02T08:45:47.528Z,98891.91
2022-12-02T08:48:15.270Z,98896.72
2022-12-02T08:50:42.958Z,98902.84
2022-12-02T08:53:10.875Z,98898.19
2022-12-02T08:55:38.565Z,98901.94
2022-12-02T08:58:06.274Z,98907.28
2022-12-02T09:00:38.825Z,98911.22
2022-12-02T09:03:07.414Z,98901.44
2022-12-02T09:05:36.139Z,98887.50
2022-12-02T09:08:04.832Z,98904.72
2022-12-02T09:10:33.041Z,98879.31
2022-12-02T09:13:00.765Z,98905.47
2022-12-02T09:15:28.704Z,98894.56
2022-12-02T09:17:56.571Z,98891.66
2022-12-02T09:20:24.300Z,98895.31
2022-12-02T09:22:52.016Z,98894.88
2022-12-02T09:25:19.751Z,98889.50
2022-12-02T09:27:47.502Z,98897.69
2022-12-02T09:30:15.746Z,98889.59
2022-12-02T09:32:43.498Z,98898.38
2022-12-02T09:35:11.341Z,98899.66
2022-12-02T09:37:39.188Z,98901.56
2022-12-02T09:40:08.662Z,98890.88
2022-12-02T09:42:36.633Z,98896.19
2022-12-02T09:45:05.031Z,98892.97
2022-12-02T09:47:32.896Z,98887.22
2022-12-02T09:50:00.626Z,98882.78
2022-12-02T09:52:29.784Z,98884.31
2022-12-02T09:54:59.781Z,98877.97
2022-12-02T09:57:35.430Z,98862.91
2022-12-02T10:00:15.418Z,98878.31
2022-12-02T10:02:54.764Z,98872.53
2022-12-02T10:05:25.913Z,98877.16
2022-12-02T10:07:56.988Z,98869.25
2022-12-02T10:10:27.389Z,98868.22
2022-12-02T10:12:55.374Z,98873.97
2022-12-02T10:15:26.183Z,98865.66
2022-12-02T10:17:54.996Z,98862.91
2022-12-02T10:20:25.794Z,98861.69
2022-12-02T10:23:12.476Z,98864.34
2022-12-02T10:25:43.422Z,98865.34
2022-12-02T10:28:25.214Z,98857.56
2022-12-02T10:30:56.439Z,98864.88
2022-12-02T10:33:26.649Z,98842.22
2022-12-02T10:35:55.514Z,98858.13
2022-12-02T10:38:30.359Z,98856.88
2022-12-02T10:41:16.061Z,98852.59
2022-12-02T10:43:53.919Z,98854.00
2022-12-02T10:46:22.754Z,98851.53
2022-12-02T10:48:51.352Z,98849.97
2022-12-02T10:51:21.210Z,98857.97
2022-12-02T10:53:57.184Z,98848.47
2022-12-02T10:56:25.207Z,98855.53
2022-12-02T10:58:55.533Z,98856.78
2022-12-02T11:01:23.861Z,98852.22
2022-12-02T11:03:51.631Z,98851.47
2022-12-02T11:06:22.200Z,98845.69
2022-12-02T11:08:51.281Z,98840.84
2022-12-02T11:11:39.264Z,98837.28
2022-12-02T11:14:12.411Z,98834.53
2022-12-02T11:16:53.718Z,98840.09
2022-12-02T11:19:34.131Z,98831.38
2022-12-02T11:22:02.683Z,98831.31
2022-12-02T11:24:33.333Z,98833.53
2022-12-02T11:27:00.953Z,98826.25
2022-12-02T11:29:29.703Z,98835.94
2022-12-02T11:32:16.300Z,98830.47
2022-12-02T11:35:15.656Z,98823.25
2022-12-02T11:37:40.606Z,98818.78
2022-12-02T11:40:14.298Z,98818.31
2022-12-02T11:42:44.328Z,98813.41
2022-12-02T11:45:34.773Z,98819.94
2022-12-02T11:48:03.833Z,98816.81
2022-12-02T11:50:34.559Z,98814.13
2022-12-02T11:53:15.134Z,98809.94
2022-12-02T11:55:52.000Z,98808.88
2022-12-02T11:58:35.011Z,98816.22
2022-12-02T12:01:18.641Z,98804.78
2022-12-02T12:03:52.390Z,98802.03
2022-12-02T12:06:21.281Z,98800.28
2022-12-02T12:08:54.646Z,98801.34
2022-12-02T12:11:25.070Z,98802.56
2022-12-02T12:14:23.665Z,98809.69
2022-12-02T12:16:51.796Z,98798.38
2022-12-02T12:19:20.153Z,98804.56
2022-12-02T12:21:54.288Z,98799.13
2022-12-02T12:24:23.207Z,98803.09
2022-12-02T12:26:53.808Z,98810.72
2022-12-02T12:29:23.736Z,98805.69
2022-12-02T12:31:52.234Z,98796.34
2022-12-02T12:34:20.463Z,98799.88
2022-12-02T12:36:48.253Z,98802.44
2022-12-02T12:39:16.720Z,98790.41
2022-12-02T12:41:59.797Z,98802.81
2022-12-02T12:44:30.949Z,98804.56
2022-12-02T12:47:04.004Z,98807.88
2022-12-02T12:49:32.772Z,98803.34
2022-12-02T12:52:00.758Z,98803.53
2022-12-02T12:54:28.601Z,98788.97
2022-12-02T12:56:56.643Z,98805.81
2022-12-02T12:59:24.538Z,98795.63
2022-12-02T13:01:52.366Z,98805.81
2022-12-02T13:04:20.212Z,98805.34
2022-12-02T13:06:48.365Z,98806.66
2022-12-02T13:09:16.887Z,98810.56
2022-12-02T13:11:45.605Z,98817.84
2022-12-02T13:14:13.460Z,98786.84
2022-12-02T13:16:41.204Z,98804.16
2022-12-02T13:19:09.029Z,98801.94
2022-12-02T13:21:36.700Z,98801.31
2022-12-02T13:24:05.561Z,98801.19
2022-12-02T13:26:33.319Z,98810.78
2022-12-02T13:29:01.043Z,98808.00
2022-12-02T13:31:28.808Z,98808.47
2022-12-02T13:33:57.216Z,98813.91
2022-12-02T13:36:24.829Z,98822.06
2022-12-02T13:38:52.669Z,98821.56
2022-12-02T13:41:20.365Z,98827.28
2022-12-02T13:43:48.156Z,98830.53
2022-12-02T13:46:15.863Z,98818.78
2022-12-02T13:48:43.626Z,98822.97
2022-12-02T13:51:11.317Z,98833.03
2022-12-02T13:53:39.057Z,98799.22
2022-12-02T13:56:07.071Z,98824.34
2022-12-02T13:58:34.821Z,98827.91
2022-12-02T14:01:02.539Z,98823.94
2022-12-02T14:03:30.425Z,98825.06
2022-12-02T14:05:58.401Z,98822.75
2022-12-02T14:08:26.148Z,98828.81
2022-12-02T14:10:53.840Z,98823.63
2022-12-02T14:13:21.799Z,98811.38
2022-12-02T14:15:49.754Z,98837.28
2022-12-02T14:18:17.561Z,98834.28
2022-12-02T14:20:45.615Z,98823.41
2022-12-02T14:23:13.655Z,98760.53
2022-12-02T14:25:41.348Z,98823.44
2022-12-02T14:28:09.193Z,98821.78
2022-12-02T14:30:36.897Z,98819.34
2022-12-02T14:33:04.636Z,98811.69
2022-12-02T14:35:32.331Z,98816.44
2022-12-02T14:38:00.099Z,98822.94
2022-12-02T14:40:28.552Z,98826.00
2022-12-02T14:42:56.381Z,98816.78
2022-12-02T14:45:24.493Z,98824.00
2022-12-02T14:47:52.176Z,98815.72
2022-12-02T14:50:22.295Z,98808.44
2022-12-02T14:52:50.089Z,98818.47
2022-12-02T14:55:17.775Z,98820.44
2022-12-02T14:57:45.479Z,98825.59
2022-12-02T15:00:14.541Z,98826.78
2022-12-02T15:02:42.334Z,98834.75
2022-12-02T15:05:14.423Z,98827.41
2022-12-02T15:07:42.589Z,98833.34
2022-12-02T15:10:11.059Z,98838.09
2022-12-02T15:12:38.871Z,98838.19
2022-12-02T15:15:36.914Z,98802.88
2022-12-02T15:17:55.991Z,98833.28
2022-12-02T15:20:24.025Z,98830.56
2022-12-02T15:22:51.879Z,98841.50
2022-12-02T15:25:19.678Z,98841.41
2022-12-02T15:27:47.458Z,98840.72
2022-12-02T15:30:15.696Z,98843.97
2022-12-02T15:32:45.657Z,98844.59
2022-12-02T15:35:13.612Z,98850.91
2022-12-02T15:37:41.374Z,98846.19
2022-12-02T15:40:11.153Z,98843.66
2022-12-02T15:42:38.938Z,98847.47
2022-12-02T15:45:07.456Z,98834.75
2022-12-02T15:47:35.204Z,98854.09
2022-12-02T15:50:03.216Z,98858.22
2022-12-02T15:52:30.973Z,98865.34
2022-12-02T15:54:58.685Z,98860.69
2022-12-02T15:57:26.340Z,98861.00
2022-12-02T15:59:54.052Z,98871.13
2022-12-02T16:02:21.890Z,98865.84
2022-12-02T16:04:49.879Z,98867.06
2022-12-02T16:07:18.864Z,98872.84
2022-12-02T16:09:46.595Z,98868.75
2022-12-02T16:12:14.382Z,98862.47
2022-12-02T16:14:42.087Z,98855.59
2022-12-02T16:17:09.852Z,98859.09
2022-12-02T16:19:37.563Z,98860.31
2022-12-02T16:22:05.275Z,98861.84
2022-12-02T16:24:32.941Z,98873.91
2022-12-02T16:27:00.756Z,98889.34
2022-12-02T16:29:28.501Z,98896.50
2022-12-02T16:31:56.332Z,98892.28
2022-12-02T16:34:24.089Z,98893.84
2022-12-02T16:36:51.737Z,98849.50
2022-12-02T16:39:19.414Z,98869.19
2022-12-02T16:41:47.240Z,98871.22
2022-12-02T16:44:15.073Z,98882.06
2022-12-02T16:46:42.812Z,98875.34
2022-12-02T16:49:10.629Z,98890.00
2022-12-02T16:51:38.992Z,98891.91
2022-12-02T16:54:06.919Z,98892.50
2022-12-02T16:56:34.672Z,98895.09
2022-12-02T16:59:03.157Z,98887.59
2022-12-02T17:01:30.902Z,98888.88
2022-12-02T17:03:59.244Z,98892.44
2022-12-02T17:06:26.954Z,98898.66
2022-12-02T17:08:56.051Z,98895.41
2022-12-02T17:11:24.008Z,98877.88
2022-12-02T17:13:51.731Z,98898.22
2022-12-02T17:16:19.459Z,98903.06
2022-12-02T17:18:47.213Z,98913.47
2022-12-02T17:21:14.974Z,98914.38
2022-12-02T17:23:42.654Z,98918.28
2022-12-02T17:26:10.321Z,98909.41
2022-12-02T17:28:37.965Z,98918.13
2022-12-02T17:31:05.821Z,98894.03
2022-12-02T17:33:33.861Z,98910.22
2022-12-02T17:36:01.496Z,98918.94
2022-12-02T17:38:29.274Z,98925.50
2022-12-02T17:41:10.869Z,98917.88
2022-12-02T17:43:39.290Z,98906.88
2022-12-02T17:46:07.480Z,98911.34
2022-12-02T17:48:35.178Z,98918.47
2022-12-02T17:51:04.315Z,98914.25
2022-12-02T17:53:32.019Z,98925.81
2022-12-02T17:55:59.715Z,98929.69
2022-12-02T17:58:27.623Z,98932.19
2022-12-02T18:00:55.351Z,98928.03
2022-12-02T18:03:23.173Z,98933.97
2022-12-02T18:05:51.082Z,98938.94
2022-12-02T18:08:20.225Z,98935.03
2022-12-02T18:10:48.756Z,98934.69
2022-12-02T18:13:17.075Z,98915.97
2022-12-02T18:15:45.172Z,98939.16
2022-12-02T18:18:12.929Z,98931.25
2022-12-02T18:20:40.624Z,98928.81
2022-12-02T18:23:08.402Z,98923.59
2022-12-02T18:25:36.047Z,98943.19
2022-12-02T18:28:03.800Z,98941.41
2022-12-02T18:30:31.605Z,98941.22
2022-12-02T18:32:59.495Z,98946.63
2022-12-02T18:35:28.102Z,98937.19
2022-12-02T18:37:55.988Z,98944.56
2022-12-02T18:40:24.100Z,98941.41
2022-12-02T18:42:51.841Z,98936.78
2022-12-02T18:45:19.668Z,98938.59
2022-12-02T18:47:47.404Z,98933.44
2022-12-02T18:50:15.511Z,98920.59
2022-12-02T18:52:44.351Z,98943.06
2022-12-02T18:55:14.802Z,98938.47
2022-12-02T18:57:43.027Z,98937.53
2022-12-02T19:00:14.792Z,98936.56
2022-12-02T19:02:42.635Z,98931.19
2022-12-02T19:05:10.912Z,98932.69
2022-12-02T19:07:39.298Z,98929.19
2022-12-02T19:10:07.718Z,98927.78
2022-12-02T19:12:35.477Z,98936.75
2022-12-02T19:15:03.279Z,98881.78
2022-12-02T19:17:31.301Z,98941.47
2022-12-02T19:19:59.069Z,98939.25
2022-12-02T19:22:26.869Z,98937.25
2022-12-02T19:24:54.892Z,98939.00
2022-12-02T19:30:10.986Z,98940.97
2022-12-02T19:32:38.745Z,98944.72
2022-12-02T19:35:06.844Z,98940.91
2022-12-02T19:37:34.615Z,98935.69
2022-12-02T19:40:02.292Z,98941.59
2022-12-02T19:42:30.008Z,98950.50
2022-12-02T19:44:57.693Z,98953.34
2022-12-02T19:47:25.638Z,98952.78
2022-12-02T19:49:53.333Z,98943.13
2022-12-02T19:52:21.064Z,98944.72
2022-12-02T19:54:51.659Z,98944.72
2022-12-02T19:57:19.988Z,98958.31
2022-12-02T19:59:47.660Z,98949.03
2022-12-02T20:02:15.443Z,98948.53
2022-12-02T20:04:43.245Z,98940.97
2022-12-02T20:07:11.190Z,98930.66
2022-12-02T20:09:38.918Z,98945.59
2022-12-02T20:12:06.866Z,98954.72
2022-12-02T20:14:34.605Z,98951.75
2022-12-02T20:17:02.320Z,98952.53
2022-12-02T20:19:30.215Z,98943.25
2022-12-02T20:21:57.897Z,98949.84
2022-12-02T20:24:25.561Z,98945.16
2022-12-02T20:26:53.299Z,98949.09
2022-12-02T20:29:21.003Z,98938.50
2022-12-02T20:31:48.959Z,98952.41
2022-12-02T20:34:16.708Z,98953.75
2022-12-02T20:36:44.383Z,98953.34
2022-12-02T20:39:13.434Z,98953.50
2022-12-02T20:41:41.629Z,98952.66
2022-12-02T20:44:09.477Z,98970.59
2022-12-02T20:46:37.291Z,98976.72
2022-12-02T20:49:05.089Z,98967.44
2022-12-02T20:51:32.857Z,98959.97
2022-12-02T20:54:00.647Z,98943.41
2022-12-02T20:56:29.388Z,98959.72
2022-12-02T20:58:57.169Z,98963.78
2022-12-02T21:01:24.968Z,98961.94
2022-12-02T21:03:52.777Z,98961.81
2022-12-02T21:06:20.454Z,98961.81
2022-12-02T21:08:50.189Z,98942.25
2022-12-02T21:11:17.964Z,98953.75
2022-12-02T21:13:45.807Z,98943.00
2022-12-02T21:16:13.605Z,98944.97
2022-12-02T21:18:41.332Z,98945.31
2022-12-02T21:21:09.051Z,98941.22
2022-12-02T21:23:36.796Z,98943.56
2022-12-02T21:26:04.547Z,98947.78
2022-12-02T21:28:32.283Z,98947.78
2022-12-02T21:31:00.229Z,98948.78
2022-12-02T21:33:28.006Z,98949.94
2022-12-02T21:35:55.704Z,98970.34
2022-12-02T21:38:23.441Z,98979.88
2022-12-02T21:40:51.254Z,98965.38
2022-12-02T21:43:19.007Z,98957.06
2022-12-02T21:45:46.726Z,98945.97
2022-12-02T21:48:14.492Z,98910.03
2022-12-02T21:50:42.248Z,98957.56
2022-12-02T21:53:09.942Z,98958.00
2022-12-02T21:55:37.696Z,98940.50
2022-12-02T21:58:05.441Z,98944.13
2022-12-02T22:00:33.361Z,98969.00
2022-12-02T22:03:02.732Z,98973.06
2022-12-02T22:05:30.434Z,98975.28
2022-12-02T22:07:58.190Z,98969.81
2022-12-02T22:10:27.194Z,98973.38
2022-12-02T22:12:54.873Z,98974.72
2022-12-02T22:15:23.274Z,98966.34
2022-12-02T22:17:50.924Z,98974.03
2022-12-02T22:20:19.447Z,98977.69
2022-12-02T22:22:47.136Z,98978.53
2022-12-02T22:25:14.930Z,98982.00
2022-12-02T22:27:42.710Z,98981.34
2022-12-02T22:30:11.149Z,98974.72
2022-12-02T22:32:38.825Z,98982.50
2022-12-02T22:35:08.456Z,98978.28
2022-12-02T22:37:36.085Z,98978.16
2022-12-02T22:40:04.379Z,98964.44
2022-12-02T22:42:32.025Z,98971.88
2022-12-02T22:44:59.716Z,98971.88
2022-12-02T22:47:27.392Z,98965.09
2022-12-02T22:49:55.131Z,98971.47
2022-12-02T22:52:22.847Z,98968.56
2022-12-02T22:54:50.676Z,98960.34
2022-12-02T22:57:18.537Z,98960.28
2022-12-02T22:59:46.303Z,98967.72
2022-12-02T23:02:17.303Z,98962.03
2022-12-02T23:04:45.469Z,98957.22
2022-12-02T23:07:13.163Z,98951.50
2022-12-02T23:09:40.871Z,98950.75
2022-12-02T23:12:08.746Z,98955.25
2022-12-02T23:14:36.568Z,98949.69
2022-12-02T23:17:04.261Z,98946.22
2022-12-02T23:19:32.178Z,98948.28
2022-12-02T23:21:59.854Z,98955.72
2022-12-02T23:24:27.568Z,98945.84
2022-12-02T23:26:55.278Z,98955.97
2022-12-02T23:29:22.973Z,98962.84
2022-12-02T23:31:50.628Z,98950.25
2022-12-02T23:34:18.322Z,98955.84
2022-12-02T23:36:46.013Z,98969.00
2022-12-02T23:39:13.746Z,98970.91
2022-12-02T23:41:41.362Z,98978.69
2022-12-02T23:44:09.036Z,98955.00
2022-12-02T23:46:36.752Z,98956.50
2022-12-02T23:49:04.584Z,98968.00
2022-12-02T23:51:32.235Z,98962.63
2022-12-02T23:54:00.013Z,98961.13
2022-12-02T23:56:27.699Z,98958.44
2022-12-02T23:58:55.384Z,98894.69
